Time;durP1;ratioP1;P1;durP2;ratioP2;P2;SDS_P1;SDS_P2;PMS_P1;PMS_P2;Temp;Humidity;BMP_temperature;BMP_pressure;BME280_temperature;BME280_humidity;BME280_pressure;Samples;Min_cycle;Max_cycle;Signal;HPM_P1;HPM_P2
2022/03/29 00:02:24;;;;;;;30.50;13.20;;;;;;;9.72;68.47;101488.28;5028614;28;20038;-67
2022/03/29 00:04:49;;;;;;;24.00;13.88;;;;;;;9.64;69.21;101484.91;5032446;28;20120;-67
2022/03/29 00:07:15;;;;;;;26.52;13.57;;;;;;;9.63;69.07;101486.81;5032168;28;20061;-67
2022/03/29 00:09:40;;;;;;;28.92;14.10;;;;;;;9.57;69.73;101479.47;5032584;28;20032;-67
2022/03/29 00:12:05;;;;;;;23.63;13.63;;;;;;;9.53;69.66;101478.25;5033637;28;20048;-67
2022/03/29 00:14:31;;;;;;;30.15;14.05;;;;;;;9.54;69.13;101480.75;5018493;28;20591;-67
2022/03/29 00:16:56;;;;;;;26.48;14.55;;;;;;;9.51;69.54;101472.19;5036076;28;20045;-67
2022/03/29 00:19:21;;;;;;;24.65;14.60;;;;;;;9.50;70.59;101476.75;5036045;28;20049;-67
2022/03/29 00:21:46;;;;;;;23.20;14.35;;;;;;;9.51;70.32;101477.59;5018232;28;20067;-67
2022/03/29 00:24:12;;;;;;;26.88;14.52;;;;;;;9.51;69.87;101472.19;5036052;28;20080;-67
2022/03/29 00:26:37;;;;;;;23.70;15.35;;;;;;;9.49;70.30;101471.56;5018039;28;20651;-67
2022/03/29 00:29:02;;;;;;;26.67;15.30;;;;;;;9.48;69.69;101464.47;5035816;28;20042;-69
2022/03/29 00:31:28;;;;;;;23.55;15.52;;;;;;;9.45;70.87;101459.50;5035549;28;20083;-68
2022/03/29 00:33:53;;;;;;;28.13;15.23;;;;;;;9.36;71.30;101456.97;5036294;28;20075;-67
2022/03/29 00:36:18;;;;;;;27.08;15.85;;;;;;;9.35;71.05;101459.88;5035858;28;20034;-67
2022/03/29 00:38:46;;;;;;;26.92;15.43;;;;;;;9.22;72.41;101452.53;5035965;28;20037;-67
2022/03/29 00:41:12;;;;;;;31.77;16.52;;;;;;;9.20;72.20;101452.75;5035858;28;20032;-67
2022/03/29 00:43:37;;;;;;;27.60;16.48;;;;;;;9.10;72.20;101452.28;5035765;28;20428;-67
2022/03/29 00:46:03;;;;;;;25.02;16.35;;;;;;;9.08;72.05;101453.53;5035575;28;20037;-67
2022/03/29 00:48:28;;;;;;;26.92;17.05;;;;;;;9.01;73.35;101448.09;5017890;28;20468;-67
2022/03/29 00:50:55;;;;;;;31.45;16.83;;;;;;;8.99;72.76;101429.38;5035337;28;20026;-67
2022/03/29 00:53:22;;;;;;;27.00;16.35;;;;;;;8.98;72.74;101433.16;5035326;28;20420;-67
2022/03/29 00:55:48;;;;;;;26.88;17.55;;;;;;;8.95;72.95;101424.59;5035546;28;20045;-67
2022/03/29 00:58:14;;;;;;;27.77;17.30;;;;;;;8.91;73.47;101420.63;5034551;28;20033;-67
2022/03/29 01:00:40;;;;;;;28.10;17.77;;;;;;;8.90;73.67;101424.38;5031897;28;20056;-67
2022/03/29 01:03:05;;;;;;;31.00;17.10;;;;;;;8.88;73.36;101421.88;5035444;28;20488;-67
2022/03/29 01:05:31;;;;;;;28.02;17.75;;;;;;;8.90;73.47;101414.41;5035018;28;20032;-67
2022/03/29 01:07:58;;;;;;;29.10;17.58;;;;;;;8.86;73.71;101418.53;5034094;28;20039;-67
2022/03/29 01:10:24;;;;;;;30.95;17.83;;;;;;;8.87;73.05;101420.19;5034763;28;20448;-67
2022/03/29 01:12:54;;;;;;;28.65;17.13;;;;;;;8.85;74.05;101416.88;5035011;28;20476;-67
2022/03/29 01:15:22;;;;;;;28.52;17.92;;;;;;;8.81;73.95;101411.03;5033467;28;20034;-67
2022/03/29 01:17:48;;;;;;;29.08;18.60;;;;;;;8.78;73.85;101411.41;5017509;28;20034;-67
2022/03/29 01:20:22;;;;;;;26.38;18.15;;;;;;;8.80;74.54;101403.97;5035089;28;20025;-67
2022/03/29 01:22:49;;;;;;;30.48;18.98;;;;;;;8.78;74.20;101405.22;5034619;28;20072;-67
2022/03/29 01:25:22;;;;;;;26.73;18.48;;;;;;;8.73;74.33;101405.81;5034799;28;20064;-67
2022/03/29 01:27:49;;;;;;;29.25;18.92;;;;;;;8.71;75.03;101405.19;5035024;28;20052;-67
2022/03/29 01:30:15;;;;;;;30.83;18.67;;;;;;;8.69;75.09;101404.53;5034550;28;20092;-67
2022/03/29 01:32:45;;;;;;;29.65;19.58;;;;;;;8.71;74.74;101404.31;5034307;28;20029;-67
2022/03/29 01:35:12;;;;;;;27.70;19.13;;;;;;;8.69;74.75;101399.13;5034417;28;20120;-67
2022/03/29 01:37:38;;;;;;;27.85;19.48;;;;;;;8.71;74.43;101397.09;5034839;28;20029;-67
2022/03/29 01:40:08;;;;;;;31.80;20.15;;;;;;;8.68;74.80;101397.44;5034460;28;20071;-67
2022/03/29 01:42:34;;;;;;;27.20;18.83;;;;;;;8.62;75.05;101400.94;5034492;28;20025;-67
2022/03/29 01:45:00;;;;;;;30.88;19.77;;;;;;;8.60;75.20;101395.75;5034638;28;20033;-67
2022/03/29 01:47:26;;;;;;;33.95;20.77;;;;;;;8.55;75.14;101392.00;5034311;28;20017;-67
2022/03/29 01:49:52;;;;;;;29.95;19.85;;;;;;;8.52;75.84;101393.22;5034530;28;20507;-67
2022/03/29 01:52:17;;;;;;;29.25;20.23;;;;;;;8.44;75.88;101387.97;5034298;28;20058;-67
2022/03/29 01:54:43;;;;;;;33.22;21.25;;;;;;;8.44;75.58;101380.72;5034444;28;20420;-67
2022/03/29 01:57:08;;;;;;;32.10;21.13;;;;;;;8.45;76.21;101384.25;5034161;28;20040;-67
2022/03/29 02:02:22;;;;;;;32.15;20.95;;;;;;;8.43;76.21;101375.50;5011778;28;20099;-67
2022/03/29 02:04:47;;;;;;;30.48;20.55;;;;;;;8.41;76.10;101361.38;5034321;28;20033;-67
2022/03/29 02:07:12;;;;;;;30.73;20.98;;;;;;;8.37;76.15;101360.13;5032683;28;20171;-67
2022/03/29 02:09:38;;;;;;;31.75;20.73;;;;;;;8.33;76.51;101368.59;5033185;28;20029;-67
2022/03/29 02:12:05;;;;;;;34.33;21.92;;;;;;;8.39;76.86;101358.88;5034126;28;20032;-67
2022/03/29 02:14:30;;;;;;;29.17;22.10;;;;;;;8.31;76.48;101354.47;5033155;28;20052;-67
2022/03/29 02:16:56;;;;;;;30.15;21.85;;;;;;;8.34;76.44;101362.16;5034064;28;20151;-67
2022/03/29 02:19:21;;;;;;;36.50;22.83;;;;;;;8.33;76.94;101359.66;5033714;28;20369;-67
2022/03/29 02:21:46;;;;;;;32.35;23.10;;;;;;;8.33;76.76;101349.72;5033588;28;20113;-72
2022/03/29 02:24:12;;;;;;;33.80;23.55;;;;;;;8.28;77.51;101352.16;5033810;28;20044;-67
2022/03/29 02:26:37;;;;;;;34.38;23.17;;;;;;;8.23;77.93;101343.84;5033894;28;20099;-68
2022/03/29 02:29:02;;;;;;;31.23;22.77;;;;;;;8.22;77.46;101338.66;5033623;28;20033;-73
2022/03/29 02:31:28;;;;;;;33.88;23.63;;;;;;;8.15;77.56;101330.50;5033345;28;20427;-68
2022/03/29 02:33:53;;;;;;;34.60;24.38;;;;;;;8.14;77.27;101327.00;5033204;28;20025;-69
2022/03/29 02:36:18;;;;;;;34.85;23.83;;;;;;;8.11;78.06;101329.25;5033321;28;20061;-68
2022/03/29 02:38:43;;;;;;;35.28;24.42;;;;;;;8.04;78.43;101328.38;5033514;28;20032;-67
2022/03/29 02:41:09;;;;;;;32.13;24.02;;;;;;;8.03;78.36;101326.69;5033790;28;20039;-67
2022/03/29 02:43:34;;;;;;;33.58;24.83;;;;;;;7.97;78.65;101321.06;5033040;28;20030;-67
2022/03/29 02:45:59;;;;;;;36.38;24.50;;;;;;;7.97;79.12;101322.91;5032987;28;20025;-67
2022/03/29 02:48:25;;;;;;;37.45;23.58;;;;;;;7.95;78.49;101320.41;5033091;28;20025;-67
2022/03/29 02:50:50;;;;;;;34.10;24.58;;;;;;;7.98;78.47;101314.63;5033266;28;20365;-67
2022/03/29 02:53:15;;;;;;;36.47;25.50;;;;;;;7.97;79.34;101306.75;5031769;28;20034;-67
2022/03/29 02:55:41;;;;;;;34.50;25.30;;;;;;;7.98;79.25;101308.41;5033329;28;20034;-67
2022/03/29 02:58:07;;;;;;;36.28;26.27;;;;;;;7.96;79.65;101305.09;5033084;28;20133;-67
2022/03/29 03:00:32;;;;;;;37.00;26.85;;;;;;;7.96;79.03;101300.53;5012865;28;20032;-67
2022/03/29 03:02:59;;;;;;;39.45;26.95;;;;;;;7.97;78.84;101299.50;5031432;28;20108;-67
2022/03/29 03:05:25;;;;;;;39.38;26.88;;;;;;;7.95;79.20;101300.72;5032990;28;20057;-67
2022/03/29 03:07:50;;;;;;;39.75;27.50;;;;;;;7.96;79.00;101302.41;5032667;28;20057;-67
2022/03/29 03:10:16;;;;;;;40.25;28.45;;;;;;;7.87;79.67;101290.13;5032829;28;20029;-67
2022/03/29 03:12:46;;;;;;;37.30;26.90;;;;;;;7.97;79.31;101298.66;5032860;28;20076;-67
2022/03/29 03:15:14;;;;;;;37.83;27.83;;;;;;;7.95;79.51;101289.94;5033055;28;20037;-67
2022/03/29 03:17:40;;;;;;;38.63;28.90;;;;;;;8.06;78.94;101285.88;5032708;28;20029;-67
2022/03/29 03:20:06;;;;;;;37.83;27.60;;;;;;;8.11;79.16;101286.94;5032951;28;20030;-67
2022/03/29 03:22:34;;;;;;;41.42;28.88;;;;;;;8.06;78.70;101288.56;5032351;28;20044;-67
2022/03/29 03:24:59;;;;;;;42.30;28.65;;;;;;;8.10;78.38;101285.28;5032900;28;20033;-67
2022/03/29 03:27:24;;;;;;;42.92;27.88;;;;;;;8.11;78.96;101280.75;5032396;28;20091;-67
2022/03/29 03:29:49;;;;;;;44.47;28.67;;;;;;;8.13;79.17;101281.34;5032896;28;20036;-67
2022/03/29 03:32:15;;;;;;;43.08;29.42;;;;;;;8.09;78.56;101280.09;5032479;28;20029;-67
2022/03/29 03:34:41;;;;;;;40.65;29.85;;;;;;;8.05;79.01;101282.34;5032592;28;20029;-67
2022/03/29 03:37:07;;;;;;;42.45;29.20;;;;;;;8.06;79.47;101277.78;5032426;28;20034;-67
2022/03/29 03:39:35;;;;;;;40.50;29.02;;;;;;;8.05;79.45;101281.53;5032098;28;20415;-67
2022/03/29 03:42:01;;;;;;;40.70;29.25;;;;;;;8.02;79.06;101276.50;5014972;28;20036;-67
2022/03/29 03:44:27;;;;;;;45.38;30.70;;;;;;;8.02;79.33;101268.41;5032178;28;20389;-67
2022/03/29 03:46:52;;;;;;;43.80;30.77;;;;;;;7.98;78.83;101271.50;5031973;28;20041;-67
2022/03/29 03:49:17;;;;;;;41.50;30.67;;;;;;;7.98;78.98;101268.00;5032127;28;20148;-67
2022/03/29 03:51:43;;;;;;;45.60;31.73;;;;;;;7.99;79.33;101272.38;5032417;28;20072;-67
2022/03/29 03:54:08;;;;;;;41.88;30.58;;;;;;;7.97;79.30;101267.16;5032454;28;20041;-67
2022/03/29 03:56:33;;;;;;;48.55;31.98;;;;;;;7.89;79.17;101267.31;5032107;28;20155;-67
2022/03/29 03:58:59;;;;;;;44.20;31.65;;;;;;;7.84;79.54;101268.94;5032418;28;20029;-67
2022/03/29 04:01:24;;;;;;;43.67;31.42;;;;;;;7.76;79.87;101270.75;5029732;28;20041;-67
2022/03/29 04:03:49;;;;;;;46.80;32.25;;;;;;;7.71;80.26;101258.91;5030660;28;20077;-67
2022/03/29 04:06:15;;;;;;;43.42;32.10;;;;;;;7.66;79.92;101255.97;5032622;28;20364;-67
2022/03/29 04:08:40;;;;;;;43.33;32.35;;;;;;;7.60;80.64;101252.19;5032230;28;20029;-67
2022/03/29 04:11:06;;;;;;;44.45;33.90;;;;;;;7.58;81.07;101249.69;5032212;28;20021;-67
2022/03/29 04:13:32;;;;;;;47.08;32.78;;;;;;;7.55;80.90;101239.31;5032352;28;20048;-67
2022/03/29 04:15:58;;;;;;;48.33;33.42;;;;;;;7.43;80.84;101236.31;5032148;28;20038;-67
2022/03/29 04:18:23;;;;;;;44.72;33.70;;;;;;;7.46;80.73;101237.78;5031549;28;20095;-67
2022/03/29 04:20:48;;;;;;;46.00;33.97;;;;;;;7.48;81.28;101237.59;5032204;28;20034;-67
2022/03/29 04:23:14;;;;;;;46.13;34.05;;;;;;;7.41;81.13;101237.53;5031967;28;20107;-67
2022/03/29 04:25:39;;;;;;;50.92;35.53;;;;;;;7.43;80.96;101235.50;5031985;28;20037;-67
2022/03/29 04:28:04;;;;;;;54.67;35.75;;;;;;;7.47;80.99;101225.16;5032095;28;20384;-67
2022/03/29 04:30:29;;;;;;;47.65;33.58;;;;;;;7.47;80.89;101225.16;5031976;28;20461;-67
2022/03/29 04:32:55;;;;;;;48.33;34.63;;;;;;;7.45;81.11;101219.97;5032041;28;20053;-67
2022/03/29 04:35:20;;;;;;;49.05;36.47;;;;;;;7.37;81.32;101212.03;5031785;28;20026;-67
2022/03/29 04:37:45;;;;;;;48.10;35.17;;;;;;;7.35;80.88;101209.53;5032148;28;20033;-67
2022/03/29 04:40:12;;;;;;;49.13;35.25;;;;;;;7.30;80.92;101208.44;5031989;28;20358;-67
2022/03/29 04:42:45;;;;;;;49.45;35.38;;;;;;;7.32;81.46;101206.38;5031352;28;20029;-67
2022/03/29 04:45:12;;;;;;;48.10;35.92;;;;;;;7.37;81.29;101214.72;5030764;28;20061;-67
2022/03/29 04:47:38;;;;;;;54.00;37.17;;;;;;;7.35;81.12;101214.94;5031678;28;20458;-67
2022/03/29 04:50:04;;;;;;;45.30;35.40;;;;;;;7.38;81.17;101211.00;5031314;28;20029;-67
2022/03/29 04:52:29;;;;;;;46.80;35.50;;;;;;;7.41;81.14;101207.91;4998867;28;20559;-68
2022/03/29 04:54:55;;;;;;;49.83;36.10;;;;;;;7.43;80.68;101203.19;5012003;28;20046;-67
2022/03/29 04:57:21;;;;;;;51.53;36.05;;;;;;;7.38;80.64;101203.75;5012350;28;20056;-68
2022/03/29 04:59:46;;;;;;;49.95;37.00;;;;;;;7.45;80.57;101201.09;5015352;28;20033;-68
2022/03/29 05:02:11;;;;;;;53.35;36.53;;;;;;;7.43;80.42;101206.69;5013115;28;20408;-67
2022/03/29 05:04:36;;;;;;;48.83;36.72;;;;;;;7.41;80.73;101199.81;5015242;28;20026;-68
2022/03/29 05:07:02;;;;;;;47.78;36.70;;;;;;;7.39;80.60;101199.19;5015916;28;20034;-67
2022/03/29 05:09:28;;;;;;;50.10;37.33;;;;;;;7.36;80.67;101196.91;5015590;28;20512;-67
2022/03/29 05:11:53;;;;;;;48.60;37.25;;;;;;;7.40;81.13;101198.19;5015571;28;20046;-67
2022/03/29 05:14:18;;;;;;;52.65;38.00;;;;;;;7.38;80.71;101192.16;5014405;28;20120;-67
2022/03/29 05:16:44;;;;;;;50.58;37.95;;;;;;;7.36;80.85;101199.59;5015137;28;20424;-68
2022/03/29 05:19:09;;;;;;;49.55;37.22;;;;;;;7.35;80.87;101197.91;5030035;28;20029;-67
2022/03/29 05:21:34;;;;;;;48.75;37.03;;;;;;;7.26;80.79;101194.53;5014983;28;20034;-68
2022/03/29 05:23:59;;;;;;;48.30;36.45;;;;;;;7.24;81.35;101194.72;5015204;28;20446;-67
2022/03/29 05:26:25;;;;;;;54.20;38.50;;;;;;;7.23;81.70;101189.53;5014990;28;20037;-68
2022/03/29 05:28:50;;;;;;;48.95;38.55;;;;;;;7.23;81.43;101195.78;5014649;28;20022;-68
2022/03/29 05:31:16;;;;;;;55.72;39.80;;;;;;;7.20;81.51;101200.69;5015137;28;20030;-67
2022/03/29 05:33:41;;;;;;;53.70;40.10;;;;;;;7.16;80.93;101196.75;5014984;28;20034;-67
2022/03/29 05:36:07;;;;;;;54.35;40.45;;;;;;;7.05;81.72;101201.63;5015157;28;20022;-67
2022/03/29 05:38:32;;;;;;;56.97;41.35;;;;;;;6.91;82.50;101197.97;5014807;28;20045;-68
2022/03/29 05:40:57;;;;;;;59.08;41.83;;;;;;;6.88;82.50;101195.66;5014860;28;20088;-67
2022/03/29 05:43:23;;;;;;;55.70;41.33;;;;;;;6.84;82.77;101199.75;5014482;28;20026;-67
2022/03/29 05:48:52;;;;;;;60.25;41.70;;;;;;;6.83;82.82;101198.09;5014618;28;20041;-67
2022/03/29 05:48:52;;;;;;;62.00;42.78;;;;;;;6.77;83.09;101192.66;5014403;28;20096;-67
2022/03/29 05:51:18;;;;;;;70.97;44.17;;;;;;;6.70;83.98;101198.81;5014719;28;20048;-67
2022/03/29 05:53:43;;;;;;;64.55;43.22;;;;;;;6.68;84.06;101200.00;5014254;28;20034;-67
2022/03/29 05:56:08;;;;;;;68.20;44.63;;;;;;;6.67;84.34;101192.94;5014522;28;20030;-67
2022/03/29 05:58:34;;;;;;;66.85;43.03;;;;;;;6.69;84.37;101196.31;5013915;28;20520;-68
2022/03/29 06:00:59;;;;;;;63.60;42.50;;;;;;;6.74;84.12;101193.84;5012521;28;20030;-67
2022/03/29 06:03:24;;;;;;;63.97;43.10;;;;;;;6.81;84.49;101197.47;5046062;28;20033;-67
2022/03/29 06:05:50;;;;;;;67.60;44.05;;;;;;;6.85;83.99;101198.72;5014442;28;20049;-68
2022/03/29 06:08:15;;;;;;;65.80;43.30;;;;;;;6.86;83.86;101199.56;5012942;28;20511;-67
2022/03/29 06:10:41;;;;;;;63.95;43.38;;;;;;;6.87;84.32;101199.38;5013031;28;20026;-67
2022/03/29 06:13:08;;;;;;;68.88;44.55;;;;;;;6.82;84.59;101196.41;5014141;28;20034;-68
2022/03/29 06:15:34;;;;;;;70.93;44.13;;;;;;;6.83;84.60;101191.88;5014059;28;20116;-67
2022/03/29 06:18:00;;;;;;;68.35;44.90;;;;;;;6.77;84.39;101195.34;5014308;28;20036;-67
2022/03/29 06:20:25;;;;;;;65.43;43.75;;;;;;;6.84;84.63;101193.53;5014150;28;20022;-68
2022/03/29 06:22:51;;;;;;;67.75;44.42;;;;;;;6.86;84.84;101191.50;5045718;28;20034;-68
2022/03/29 06:25:16;;;;;;;77.43;44.35;;;;;;;6.95;84.69;101194.91;5013734;28;20104;-67
2022/03/29 06:27:42;;;;;;;72.20;44.35;;;;;;;7.03;84.57;101198.28;5013578;28;20478;-68
2022/03/29 06:30:08;;;;;;;75.03;46.42;;;;;;;7.06;84.10;101191.69;5013895;28;20033;-67
2022/03/29 06:32:34;;;;;;;71.53;44.85;;;;;;;7.09;84.46;101185.91;5013289;28;20354;-68
2022/03/29 06:34:59;;;;;;;69.55;44.83;;;;;;;7.10;84.45;101185.72;5013995;28;20036;-67
2022/03/29 06:37:24;;;;;;;77.28;46.60;;;;;;;7.11;84.36;101183.88;5013790;28;20036;-68
2022/03/29 06:39:50;;;;;;;78.13;46.05;;;;;;;7.10;84.38;101177.63;5013295;28;20046;-67
2022/03/29 06:42:18;;;;;;;74.88;47.13;;;;;;;7.15;84.06;101189.69;5013277;28;20033;-68
2022/03/29 06:44:46;;;;;;;71.82;47.38;;;;;;;7.07;84.66;101188.78;5013431;28;20033;-67
2022/03/29 06:47:11;;;;;;;78.15;47.30;;;;;;;7.02;84.56;101198.47;5013854;28;20030;-67
2022/03/29 06:49:37;;;;;;;73.80;46.20;;;;;;;6.96;84.43;101189.31;5013285;28;20041;-68
2022/03/29 06:52:02;;;;;;;76.35;46.35;;;;;;;6.98;85.11;101194.50;5013556;28;20386;-67
2022/03/29 06:54:29;;;;;;;81.13;47.47;;;;;;;6.97;85.26;101187.47;5013314;28;20040;-67
2022/03/29 06:56:54;;;;;;;76.03;46.78;;;;;;;6.98;85.27;101186.44;5013007;28;20033;-67
2022/03/29 06:59:19;;;;;;;81.82;46.50;;;;;;;7.06;84.56;101189.00;5013716;28;20041;-68
2022/03/29 07:01:44;;;;;;;72.72;46.33;;;;;;;7.07;84.57;101179.91;5010901;28;20021;-67
2022/03/29 07:04:10;;;;;;;79.82;47.10;;;;;;;7.06;84.66;101178.22;5013564;28;20112;-68
2022/03/29 07:06:35;;;;;;;77.93;46.50;;;;;;;7.02;84.92;101174.25;5013478;28;20037;-67
2022/03/29 07:11:46;;;;;;;81.80;48.42;;;;;;;6.96;85.40;101169.63;5011407;28;20052;-68
2022/03/29 07:14:12;;;;;;;76.45;46.47;;;;;;;7.00;85.67;101170.94;5013260;28;20030;-67
2022/03/29 07:16:39;;;;;;;86.32;48.08;;;;;;;7.01;85.46;101178.81;5013128;28;20057;-67
2022/03/29 07:19:05;;;;;;;82.00;48.65;;;;;;;6.96;85.46;101175.88;5013187;28;20076;-68
2022/03/29 07:21:32;;;;;;;83.03;48.55;;;;;;;6.88;86.21;101184.91;5012430;28;20122;-67
2022/03/29 07:23:58;;;;;;;82.20;48.28;;;;;;;6.81;86.39;101189.38;5013048;28;20105;-68
2022/03/29 07:26:23;;;;;;;78.18;48.13;;;;;;;6.83;86.50;101181.13;5012791;28;20125;-69
2022/03/29 07:28:48;;;;;;;83.45;47.75;;;;;;;6.90;86.16;101182.03;5012722;28;20030;-68
2022/03/29 07:31:13;;;;;;;83.85;48.40;;;;;;;6.88;86.11;101190.28;5011838;28;20544;-69
2022/03/29 07:33:39;;;;;;;86.88;48.65;;;;;;;6.91;86.45;101191.75;5011542;28;20088;-69
2022/03/29 07:36:04;;;;;;;87.70;47.85;;;;;;;6.91;86.18;101187.22;5012898;28;20026;-68
2022/03/29 07:38:30;;;;;;;89.70;48.80;;;;;;;7.00;86.32;101187.06;5012932;28;20030;-69
2022/03/29 07:40:55;;;;;;;88.93;48.90;;;;;;;7.06;86.23;101191.69;5012557;28;20373;-70
2022/03/29 07:43:22;;;;;;;92.25;50.03;;;;;;;7.08;86.51;101195.00;5012758;28;20105;-69
2022/03/29 07:45:47;;;;;;;94.35;48.72;;;;;;;7.14;86.21;101199.63;5012623;28;20034;-68
2022/03/29 07:48:12;;;;;;;86.25;48.13;;;;;;;7.14;85.40;101210.41;5027800;28;20149;-69
2022/03/29 07:50:38;;;;;;;81.90;46.08;;;;;;;7.10;85.82;101214.50;5012599;28;20026;-71
2022/03/29 07:53:05;;;;;;;88.13;47.83;;;;;;;7.08;85.81;101216.53;5012031;28;20050;-69
2022/03/29 07:55:31;;;;;;;81.43;46.90;;;;;;;7.10;86.27;101219.88;5008639;28;20898;-69
2022/03/29 07:57:56;;;;;;;87.50;48.30;;;;;;;7.09;86.22;101218.19;5017912;28;20040;-69
2022/03/29 08:00:34;;;;;;;82.68;46.45;;;;;;;7.08;85.95;101217.38;5031811;28;20033;-69
2022/03/29 08:03:01;;;;;;;96.05;49.40;;;;;;;7.05;86.22;101212.38;5032212;28;20029;-69
2022/03/29 08:05:29;;;;;;;93.10;48.05;;;;;;;7.05;86.49;101216.91;5032136;28;20033;-70
2022/03/29 08:07:54;;;;;;;96.57;49.03;;;;;;;7.09;86.35;101207.44;5032016;28;20032;-70
2022/03/29 08:10:20;;;;;;;94.03;47.10;;;;;;;7.19;86.06;101207.94;5039532;28;20034;-70
2022/03/29 08:12:45;;;;;;;88.70;47.83;;;;;;;7.23;86.30;101209.22;5011736;28;20037;-70
2022/03/29 08:15:11;;;;;;;91.30;48.50;;;;;;;7.26;85.40;101208.00;5012315;28;20033;-69
2022/03/29 08:17:37;;;;;;;90.07;49.28;;;;;;;7.20;85.92;101193.47;5012309;28;20370;-68
2022/03/29 08:20:05;;;;;;;90.47;48.72;;;;;;;7.26;85.87;101203.47;5012041;28;20417;-68
2022/03/29 08:22:32;;;;;;;90.05;48.00;;;;;;;7.25;85.35;101191.00;5011895;28;20393;-68
2022/03/29 08:24:58;;;;;;;90.60;49.85;;;;;;;7.19;85.90;101189.09;5011906;28;20033;-69
2022/03/29 08:27:23;;;;;;;88.05;47.75;;;;;;;7.18;85.80;101192.81;5008160;28;20038;-69
2022/03/29 08:29:48;;;;;;;83.63;46.67;;;;;;;7.14;86.18;101186.19;5020851;28;20022;-70
2022/03/29 08:32:14;;;;;;;94.43;49.55;;;;;;;7.03;86.48;101197.44;5011966;28;20034;-69
2022/03/29 08:34:39;;;;;;;92.65;49.60;;;;;;;7.03;86.76;101195.56;5015519;28;20037;-68
2022/03/29 08:37:05;;;;;;;88.50;48.50;;;;;;;7.08;86.41;101186.91;5015692;28;20026;-69
2022/03/29 08:39:31;;;;;;;98.65;49.42;;;;;;;7.21;86.70;101184.34;5016164;28;20041;-69
2022/03/29 08:42:06;;;;;;;93.82;46.45;;;;;;;7.28;86.97;101187.13;5047380;28;20034;-69
2022/03/29 08:44:32;;;;;;;95.07;49.15;;;;;;;7.36;85.91;101194.22;5016226;28;20107;-69
2022/03/29 08:46:57;;;;;;;85.32;46.72;;;;;;;7.39;86.14;101197.34;5015753;28;20058;-69
2022/03/29 08:49:23;;;;;;;90.13;47.35;;;;;;;7.39;85.99;101191.13;5015453;28;20119;-69
2022/03/29 08:51:48;;;;;;;96.32;48.67;;;;;;;7.32;86.00;101201.81;5015264;28;20042;-69
2022/03/29 08:54:14;;;;;;;97.10;48.67;;;;;;;7.30;86.39;101198.50;5015616;28;20030;-70
2022/03/29 08:56:40;;;;;;;99.30;49.70;;;;;;;7.25;86.69;101190.19;5015130;28;20454;-69
2022/03/29 08:59:05;;;;;;;95.72;49.63;;;;;;;7.37;86.41;101194.00;5015739;28;20101;-69
2022/03/29 09:01:31;;;;;;;94.28;50.63;;;;;;;7.44;86.07;101194.06;5013387;28;20030;-69
2022/03/29 09:04:06;;;;;;;102.25;50.95;;;;;;;7.51;85.47;101197.63;5015089;28;20788;-69
2022/03/29 09:06:32;;;;;;;105.38;51.70;;;;;;;7.48;86.30;101189.94;5015019;28;20029;-69
2022/03/29 09:08:57;;;;;;;96.13;49.63;;;;;;;7.48;86.21;101189.94;5015327;28;20040;-69
2022/03/29 09:11:23;;;;;;;97.68;49.20;;;;;;;7.45;86.07;101191.16;5015372;28;20421;-69
2022/03/29 09:14:07;;;;;;;99.40;49.67;;;;;;;7.50;86.33;101184.38;5015067;28;20477;-68
2022/03/29 09:16:38;;;;;;;98.63;49.67;;;;;;;7.51;86.01;101181.47;5015559;28;20092;-69
2022/03/29 09:19:03;;;;;;;104.65;51.97;;;;;;;7.61;85.36;101183.84;5015006;28;20026;-69
2022/03/29 09:21:40;;;;;;;99.95;49.90;;;;;;;7.67;85.72;101187.56;5014717;28;20044;-69
2022/03/29 09:24:14;;;;;;;101.47;50.25;;;;;;;7.71;85.15;101183.47;5015301;28;20076;-68
2022/03/29 09:26:51;;;;;;;104.40;50.20;;;;;;;7.65;85.23;101184.25;5014961;28;20036;-69
2022/03/29 09:29:21;;;;;;;110.25;50.45;;;;;;;7.55;84.78;101181.91;5007263;28;20038;-69
2022/03/29 09:31:59;;;;;;;106.05;50.85;;;;;;;7.56;85.62;101187.13;5027688;28;20031;-69
2022/03/29 09:34:25;;;;;;;111.32;51.80;;;;;;;7.69;85.29;101190.94;5034823;28;20037;-69
2022/03/29 09:36:52;;;;;;;110.57;52.97;;;;;;;7.71;85.05;101184.28;5020100;28;20133;-70
2022/03/29 09:39:37;;;;;;;116.93;53.22;;;;;;;7.76;85.28;101186.38;5014998;28;20104;-70
2022/03/29 09:42:08;;;;;;;118.10;54.08;;;;;;;7.78;84.70;101173.56;5014466;28;20029;-70
2022/03/29 09:44:45;;;;;;;122.60;53.85;;;;;;;7.81;84.97;101171.31;5014544;28;20030;-68
2022/03/29 09:47:13;;;;;;;116.72;53.63;;;;;;;7.77;84.83;101164.63;5014752;28;20034;-70
2022/03/29 09:50:01;;;;;;;110.22;53.05;;;;;;;7.78;85.05;101166.31;5029567;28;20036;-68
2022/03/29 09:52:31;;;;;;;115.97;53.88;;;;;;;7.74;85.81;101170.41;4994746;28;20376;-68
2022/03/29 09:55:23;;;;;;;114.70;55.37;;;;;;;7.76;85.20;101159.44;4996890;28;20129;-68
2022/03/29 09:57:52;;;;;;;107.38;53.45;;;;;;;7.74;85.54;101145.34;5014470;28;20022;-70
2022/03/29 10:00:30;;;;;;;117.35;55.55;;;;;;;7.79;85.35;101153.69;5014312;28;20543;-68
2022/03/29 10:02:55;;;;;;;111.80;52.83;;;;;;;7.78;85.64;101146.63;5013406;28;20034;-68
2022/03/29 10:05:22;;;;;;;109.30;53.38;;;;;;;7.79;85.49;101154.50;5014241;28;20053;-68
2022/03/29 10:09:25;;;;;;;104.00;51.45;;;;;;;7.84;85.00;101145.84;5024097;28;20481;-70
2022/03/29 10:10:44;;;;;;;105.13;51.08;;;;;;;7.91;85.07;101135.94;5013527;28;20474;-70
2022/03/29 10:13:09;;;;;;;104.10;52.78;;;;;;;7.96;85.17;101141.53;5011610;28;20045;-69
2022/03/29 10:15:35;;;;;;;104.15;51.00;;;;;;;7.98;84.40;101135.94;5015806;28;20040;-69
2022/03/29 10:18:01;;;;;;;95.40;49.38;;;;;;;8.06;85.07;101137.63;5014191;28;20030;-70
2022/03/29 10:20:27;;;;;;;81.32;46.85;;;;;;;8.06;84.25;101132.22;5014077;28;20045;-70
2022/03/29 10:22:54;;;;;;;89.72;48.60;;;;;;;8.12;84.42;101126.88;5013044;28;20040;-69
2022/03/29 10:25:20;;;;;;;88.88;47.30;;;;;;;8.19;84.16;101126.06;5027833;28;20026;-69
2022/03/29 10:27:48;;;;;;;91.13;47.95;;;;;;;8.27;83.54;101129.44;5032870;28;20579;-69
2022/03/29 10:30:30;;;;;;;86.13;47.00;;;;;;;8.35;83.75;101136.50;5013830;28;20026;-69
2022/03/29 10:33:14;;;;;;;80.22;46.60;;;;;;;8.39;83.04;101132.34;5013629;28;20034;-69
2022/03/29 10:35:58;;;;;;;72.10;43.65;;;;;;;8.45;82.86;101136.13;5013527;28;20037;-69
2022/03/29 10:38:42;;;;;;;79.85;45.00;;;;;;;8.45;83.11;101130.72;5017102;28;20029;-70
2022/03/29 10:41:33;;;;;;;70.50;42.92;;;;;;;8.47;82.72;101129.50;5033329;28;20384;-70
2022/03/29 10:44:11;;;;;;;75.85;43.03;;;;;;;8.49;82.61;101121.22;5014135;28;20129;-69
2022/03/29 10:46:36;;;;;;;70.22;43.95;;;;;;;8.52;83.08;101115.41;5013377;28;20025;-69
2022/03/29 10:49:23;;;;;;;71.03;42.57;;;;;;;8.54;81.83;101110.63;5012927;28;20088;-71
2022/03/29 10:52:15;;;;;;;68.80;43.05;;;;;;;8.59;83.12;101110.00;5013364;28;20285;-70
2022/03/29 10:54:41;;;;;;;65.70;42.13;;;;;;;8.57;82.63;101110.22;4982509;28;20042;-70
2022/03/29 10:57:24;;;;;;;63.97;42.08;;;;;;;8.52;83.34;101112.72;5012806;28;20036;-70
2022/03/29 10:59:51;;;;;;;63.65;41.97;;;;;;;8.49;83.09;101108.53;5012118;28;20128;-70
2022/03/29 11:02:20;;;;;;;67.25;42.15;;;;;;;8.48;82.73;101108.75;5011203;28;20030;-70
2022/03/29 11:05:05;;;;;;;62.38;40.60;;;;;;;8.61;82.68;101103.38;4992531;28;20366;-70
2022/03/29 11:07:35;;;;;;;66.45;40.60;;;;;;;8.67;82.57;101091.75;4993864;28;20113;-70
2022/03/29 11:10:15;;;;;;;64.88;40.38;;;;;;;8.76;82.40;101083.47;4993482;28;20042;-69
2022/03/29 11:12:49;;;;;;;57.03;39.08;;;;;;;8.81;81.97;101086.38;4993519;28;20038;-72
2022/03/29 11:15:23;;;;;;;55.20;38.25;;;;;;;8.88;81.91;101087.22;4993684;28;20027;-71
2022/03/29 11:17:48;;;;;;;55.67;37.35;;;;;;;8.89;81.58;101083.44;4993407;28;20030;-71
2022/03/29 11:20:30;;;;;;;58.78;38.50;;;;;;;8.87;80.80;101078.25;4993185;28;20037;-73
2022/03/29 11:23:06;;;;;;;56.20;37.60;;;;;;;8.95;82.55;101090.75;4976023;28;20038;-70
2022/03/29 11:25:43;;;;;;;54.53;38.08;;;;;;;9.03;81.06;101093.22;4993439;28;20066;-69